createdAt,value
2022-09-06T00:00:05.806Z,1.50
2022-09-06T00:02:40.346Z,1.33
2022-09-06T00:05:10.268Z,1.50
2022-09-06T00:07:38.310Z,1.47
2022-09-06T00:10:06.969Z,1.50
2022-09-06T00:12:35.158Z,1.50
2022-09-06T00:15:03.250Z,1.60
2022-09-06T00:17:32.063Z,1.50
2022-09-06T00:20:00.040Z,1.43
2022-09-06T00:22:29.449Z,1.37
2022-09-06T00:24:57.581Z,1.40
2022-09-06T00:27:25.580Z,1.40
2022-09-06T00:29:53.634Z,1.37
2022-09-06T00:32:21.584Z,1.47
2022-09-06T00:34:49.552Z,2.27
2022-09-06T00:37:17.508Z,1.30
2022-09-06T00:39:46.914Z,1.30
2022-09-06T00:42:15.088Z,1.53
2022-09-06T00:44:43.093Z,1.50
2022-09-06T00:47:11.109Z,1.40
2022-09-06T00:49:40.429Z,1.50
2022-09-06T00:52:10.232Z,1.23
2022-09-06T00:54:38.233Z,1.40
2022-09-06T00:57:07.691Z,1.47
2022-09-06T00:59:36.742Z,1.30
2022-09-06T01:02:05.542Z,1.30
2022-09-06T01:04:33.646Z,1.50
2022-09-06T01:07:04.369Z,1.20
2022-09-06T01:09:40.388Z,1.30
2022-09-06T01:12:20.922Z,1.30
2022-09-06T01:15:02.969Z,1.30
2022-09-06T01:17:35.931Z,1.27
2022-09-06T01:20:23.519Z,1.40
2022-09-06T01:23:13.106Z,1.20
2022-09-06T01:25:45.623Z,1.70
2022-09-06T01:28:27.260Z,1.33
2022-09-06T01:30:58.715Z,1.83
2022-09-06T01:33:29.781Z,1.40
2022-09-06T01:35:59.563Z,1.30
2022-09-06T01:38:27.664Z,1.33
2022-09-06T01:40:55.988Z,1.30
2022-09-06T01:43:26.786Z,1.20
2022-09-06T01:45:59.118Z,1.40
2022-09-06T01:48:31.498Z,1.40
2022-09-06T01:51:04.313Z,1.20
2022-09-06T01:53:47.248Z,1.40
2022-09-06T01:56:21.155Z,1.20
2022-09-06T01:59:04.514Z,1.10
2022-09-06T02:01:35.934Z,1.50
2022-09-06T02:04:07.405Z,1.30
2022-09-06T02:06:38.383Z,1.30
2022-09-06T02:09:07.836Z,1.53
2022-09-06T02:11:38.337Z,1.30
2022-09-06T02:14:09.843Z,1.30
2022-09-06T02:16:38.569Z,1.17
2022-09-06T02:19:09.430Z,1.40
2022-09-06T02:21:39.299Z,1.10
2022-09-06T02:24:09.259Z,1.33
2022-09-06T02:26:38.973Z,1.20
2022-09-06T02:29:08.382Z,1.40
2022-09-06T02:31:38.648Z,1.50
2022-09-06T02:34:06.631Z,1.20
2022-09-06T02:36:36.768Z,1.40
2022-09-06T02:39:05.832Z,1.30
2022-09-06T02:41:33.822Z,1.10
2022-09-06T02:44:01.770Z,1.40
2022-09-06T02:46:31.162Z,1.10
2022-09-06T02:48:59.177Z,1.30
2022-09-06T02:51:27.116Z,1.20
2022-09-06T02:53:55.180Z,1.20
2022-09-06T02:56:23.168Z,1.10
2022-09-06T02:58:51.147Z,1.07
2022-09-06T03:01:19.162Z,1.23
2022-09-06T03:03:48.538Z,1.20
2022-09-06T03:06:16.518Z,1.20
2022-09-06T03:08:44.462Z,1.40
2022-09-06T03:11:12.518Z,1.20
2022-09-06T03:13:40.530Z,1.17
2022-09-06T03:16:08.996Z,1.27
2022-09-06T03:18:36.956Z,1.10
2022-09-06T03:21:06.510Z,1.20
2022-09-06T03:23:34.616Z,1.30
2022-09-06T03:26:02.579Z,1.27
2022-09-06T03:28:30.554Z,1.20
2022-09-06T03:30:58.570Z,1.20
2022-09-06T03:33:26.606Z,1.03
2022-09-06T03:35:55.917Z,1.20
2022-09-06T03:38:25.828Z,1.20
2022-09-06T03:40:53.917Z,1.40
2022-09-06T03:43:22.989Z,1.20
2022-09-06T03:45:52.478Z,1.33
2022-09-06T03:48:21.272Z,1.17
2022-09-06T03:50:50.697Z,1.10
2022-09-06T03:53:18.909Z,1.10
2022-09-06T03:55:48.503Z,1.20
2022-09-06T03:58:16.691Z,1.20
2022-09-06T04:00:44.714Z,1.23
2022-09-06T04:03:12.713Z,1.10
2022-09-06T04:05:40.714Z,0.97
2022-09-06T04:08:08.675Z,1.33
2022-09-06T04:10:37.246Z,1.80
2022-09-06T04:13:06.600Z,1.00
2022-09-06T04:15:34.586Z,1.17
2022-09-06T04:18:07.216Z,1.30
2022-09-06T04:20:37.041Z,1.10
2022-09-06T04:23:05.081Z,1.10
2022-09-06T04:25:33.040Z,1.20
2022-09-06T04:28:01.015Z,1.47
2022-09-06T04:30:30.346Z,1.20
2022-09-06T04:32:58.293Z,1.10
2022-09-06T04:35:26.244Z,1.20
2022-09-06T04:37:54.200Z,1.30
2022-09-06T04:40:22.156Z,1.23
2022-09-06T04:42:50.092Z,1.00
2022-09-06T04:45:18.188Z,1.20
2022-09-06T04:47:47.556Z,1.20
2022-09-06T04:50:15.532Z,1.30
2022-09-06T04:52:49.268Z,1.30
2022-09-06T04:55:17.354Z,1.60
2022-09-06T04:57:49.522Z,1.30
2022-09-06T05:00:19.394Z,1.00
2022-09-06T05:02:48.752Z,1.20
2022-09-06T05:05:16.821Z,1.40
2022-09-06T05:07:44.805Z,1.30
2022-09-06T05:10:12.744Z,1.20
2022-09-06T05:12:44.113Z,1.10
2022-09-06T05:15:12.642Z,1.20
2022-09-06T05:17:40.625Z,1.30
2022-09-06T05:20:11.622Z,1.10
2022-09-06T05:22:39.725Z,1.20
2022-09-06T05:25:08.262Z,1.30
2022-09-06T05:27:36.312Z,1.37
2022-09-06T05:30:04.777Z,1.07
2022-09-06T05:32:32.772Z,1.30
2022-09-06T05:35:00.743Z,1.40
2022-09-06T05:37:30.073Z,1.20
2022-09-06T05:40:00.144Z,1.10
2022-09-06T05:42:28.202Z,1.47
2022-09-06T05:44:56.137Z,1.20
2022-09-06T05:47:24.113Z,1.27
2022-09-06T05:49:52.220Z,1.17
2022-09-06T05:52:21.838Z,1.80
2022-09-06T05:54:51.206Z,1.27
2022-09-06T05:57:19.265Z,1.30
2022-09-06T05:59:47.245Z,1.23
2022-09-06T06:02:15.218Z,1.47
2022-09-06T06:04:43.159Z,1.20
2022-09-06T06:07:11.149Z,1.37
2022-09-06T06:09:39.114Z,1.50
2022-09-06T06:12:08.768Z,1.30
2022-09-06T06:14:36.731Z,1.60
2022-09-06T06:17:04.786Z,1.57
2022-09-06T06:19:32.734Z,1.47
2022-09-06T06:22:00.788Z,1.43
2022-09-06T06:24:28.733Z,1.70
2022-09-06T06:26:56.708Z,1.77
2022-09-06T06:29:26.230Z,1.50
2022-09-06T06:31:54.305Z,1.50
2022-09-06T06:34:22.371Z,1.20
2022-09-06T06:36:50.362Z,2.60
2022-09-06T06:39:18.410Z,1.60
2022-09-06T06:41:46.406Z,1.60
2022-09-06T06:44:44.144Z,1.93
2022-09-06T06:47:12.163Z,1.67
2022-09-06T06:49:40.134Z,1.77
2022-09-06T06:52:08.078Z,2.10
2022-09-06T06:54:37.357Z,1.53
2022-09-06T06:57:05.514Z,1.80
2022-09-06T06:59:33.473Z,1.80
2022-09-06T07:02:02.938Z,1.90
2022-09-06T07:04:31.001Z,1.70
2022-09-06T07:12:35.013Z,1.80
2022-09-06T07:15:03.089Z,1.93
2022-09-06T07:17:32.486Z,1.93
2022-09-06T07:20:16.319Z,1.93
2022-09-06T07:22:44.796Z,1.90
2022-09-06T07:25:19.030Z,1.83
2022-09-06T07:27:50.048Z,2.20
2022-09-06T07:30:19.488Z,1.73
2022-09-06T07:32:48.907Z,1.80
2022-09-06T07:35:17.274Z,1.80
2022-09-06T07:37:45.235Z,2.00
2022-09-06T07:40:13.288Z,1.80
2022-09-06T07:42:41.305Z,1.90
2022-09-06T07:45:10.530Z,1.80
2022-09-06T07:53:22.953Z,1.90
2022-09-06T07:55:57.112Z,1.70
2022-09-06T07:58:25.095Z,1.80
2022-09-06T08:00:53.096Z,1.60
2022-09-06T08:03:21.226Z,1.90
2022-09-06T08:11:23.176Z,1.60
2022-09-06T08:13:51.585Z,1.70
2022-09-06T08:16:20.123Z,2.00
2022-09-06T08:18:51.780Z,1.90
2022-09-06T08:21:23.435Z,1.70
2022-09-06T08:23:52.122Z,1.80
2022-09-06T08:26:22.330Z,1.70
2022-09-06T08:28:53.640Z,1.50
2022-09-06T08:31:21.764Z,1.83
2022-09-06T08:33:49.774Z,1.70
2022-09-06T08:36:17.827Z,1.97
2022-09-06T08:38:47.159Z,2.63
2022-09-06T08:41:22.226Z,1.80
2022-09-06T08:46:41.826Z,1.70
2022-09-06T08:49:09.930Z,1.63
2022-09-06T08:52:11.435Z,1.90
2022-09-06T08:54:42.306Z,1.70
2022-09-06T08:57:12.020Z,1.83
2022-09-06T08:59:40.478Z,1.60
2022-09-06T09:02:13.599Z,1.93
2022-09-06T09:04:44.276Z,1.67
2022-09-06T09:07:28.686Z,1.50
2022-09-06T09:09:57.989Z,1.87
2022-09-06T09:12:26.088Z,1.77
2022-09-06T09:14:56.788Z,1.70
2022-09-06T09:17:26.751Z,1.90
2022-09-06T09:19:54.728Z,1.53
2022-09-06T09:22:22.715Z,2.13
2022-09-06T09:24:51.785Z,1.50
2022-09-06T09:27:22.189Z,1.70
2022-09-06T09:32:49.995Z,1.77
2022-09-06T09:35:20.271Z,1.53
2022-09-06T09:37:49.710Z,1.70
2022-09-06T09:40:34.785Z,2.03
2022-09-06T09:43:16.098Z,1.60
2022-09-06T09:45:44.807Z,1.90
2022-09-06T09:48:20.868Z,2.00
2022-09-06T09:50:48.890Z,1.90
2022-09-06T09:53:18.690Z,2.00
2022-09-06T09:55:46.918Z,1.87
2022-09-06T09:58:28.787Z,1.80
2022-09-06T10:01:11.094Z,2.07
2022-09-06T10:09:21.960Z,1.70
2022-09-06T10:11:55.280Z,1.97
2022-09-06T10:14:29.790Z,1.70
2022-09-06T10:16:57.830Z,2.13
2022-09-06T10:19:42.213Z,1.83
2022-09-06T10:22:31.404Z,1.70
2022-09-06T10:25:41.485Z,2.30
2022-09-06T10:28:29.888Z,2.07
2022-09-06T10:31:27.572Z,2.07
2022-09-06T10:34:02.800Z,2.17
2022-09-06T10:36:33.862Z,2.00
2022-09-06T10:39:04.262Z,1.93
2022-09-06T10:41:58.005Z,2.33
2022-09-06T10:44:37.078Z,2.30
2022-09-06T10:47:09.969Z,2.13
2022-09-06T10:49:38.451Z,1.95
2022-09-06T10:52:07.441Z,1.73
2022-09-06T10:54:35.364Z,2.53
2022-09-06T10:57:04.488Z,2.10
2022-09-06T11:02:12.070Z,3.10
2022-09-06T11:07:29.879Z,1.90
2022-09-06T11:09:58.811Z,2.00
2022-09-06T11:12:31.506Z,1.90
2022-09-06T11:14:59.751Z,2.00
2022-09-06T11:17:31.312Z,2.10
2022-09-06T11:20:03.263Z,2.00
2022-09-06T11:22:47.286Z,1.87
2022-09-06T11:25:40.826Z,2.27
2022-09-06T11:28:10.026Z,1.60
2022-09-06T11:30:37.950Z,2.00
2022-09-06T11:33:14.267Z,1.80
2022-09-06T11:35:42.168Z,2.13
2022-09-06T11:38:20.259Z,1.73
2022-09-06T11:40:48.820Z,2.17
2022-09-06T11:43:18.799Z,1.80
2022-09-06T11:45:48.661Z,1.67
2022-09-06T11:48:49.361Z,2.00
2022-09-06T11:51:32.869Z,2.00
2022-09-06T11:54:18.023Z,1.67
2022-09-06T11:56:52.123Z,1.60
2022-09-06T11:59:28.418Z,1.83
2022-09-06T12:02:03.149Z,1.70
2022-09-06T12:05:09.353Z,1.60
2022-09-06T12:07:38.657Z,4.00
2022-09-06T12:10:36.351Z,1.70
2022-09-06T12:13:04.255Z,1.90
2022-09-06T12:15:32.798Z,1.53
2022-09-06T12:18:00.920Z,1.87
2022-09-06T12:21:01.800Z,2.00
2022-09-06T12:23:44.209Z,1.70
2022-09-06T12:26:12.449Z,1.70
2022-09-06T12:28:43.339Z,1.80
2022-09-06T12:31:32.603Z,2.00
2022-09-06T12:34:00.694Z,1.90
2022-09-06T12:36:30.330Z,1.80
2022-09-06T12:39:00.723Z,1.60
2022-09-06T12:41:30.617Z,1.70
2022-09-06T12:44:00.110Z,1.70
2022-09-06T12:46:28.479Z,2.00
2022-09-06T12:49:04.550Z,1.70
2022-09-06T12:51:32.894Z,2.03
2022-09-06T12:54:02.899Z,1.90
2022-09-06T12:56:32.778Z,1.80
2022-09-06T12:59:17.248Z,1.60
2022-09-06T13:01:54.741Z,1.50
2022-09-06T13:04:28.746Z,1.97
2022-09-06T13:06:56.932Z,3.30
2022-09-06T13:09:27.664Z,2.17
2022-09-06T13:12:04.931Z,2.17
2022-09-06T13:14:32.828Z,2.87
2022-09-06T13:17:01.084Z,2.30
2022-09-06T13:19:32.367Z,2.30
2022-09-06T13:22:00.501Z,2.37
2022-09-06T13:24:46.511Z,1.93
2022-09-06T13:27:25.869Z,2.20
2022-09-06T13:29:57.824Z,1.80
2022-09-06T13:32:25.747Z,2.13
2022-09-06T13:34:56.889Z,2.00
2022-09-06T13:37:26.233Z,2.10
2022-09-06T13:39:57.366Z,1.87
2022-09-06T13:42:27.072Z,1.80
2022-09-06T13:44:58.777Z,2.00
2022-09-06T13:47:29.731Z,1.80
2022-09-06T13:49:57.650Z,1.90
2022-09-06T13:52:25.925Z,1.80
2022-09-06T13:54:55.866Z,1.93
2022-09-06T13:57:24.718Z,1.77
2022-09-06T13:59:53.153Z,1.60
2022-09-06T14:02:21.333Z,1.80
2022-09-06T14:04:49.592Z,1.70
2022-09-06T14:07:17.564Z,1.63
2022-09-06T14:09:45.657Z,1.90
2022-09-06T14:12:15.047Z,1.70
2022-09-06T14:14:44.540Z,1.63
2022-09-06T14:17:12.616Z,1.43
2022-09-06T14:19:41.343Z,1.60
2022-09-06T14:22:09.387Z,1.60
2022-09-06T14:24:37.443Z,2.13
2022-09-06T14:27:07.093Z,1.47
2022-09-06T14:29:36.960Z,1.50
2022-09-06T14:32:05.211Z,1.43
2022-09-06T14:34:33.096Z,1.73
2022-09-06T14:37:01.047Z,1.50
2022-09-06T14:39:29.022Z,1.60
2022-09-06T14:41:57.501Z,1.70
2022-09-06T14:44:25.940Z,1.50
2022-09-06T14:46:55.715Z,1.60
2022-09-06T14:49:25.173Z,1.73
2022-09-06T14:51:53.621Z,1.57
2022-09-06T14:54:25.043Z,1.60
2022-09-06T14:56:55.374Z,1.57
2022-09-06T14:59:23.425Z,1.40
2022-09-06T15:01:51.562Z,1.53
2022-09-06T15:04:20.993Z,1.43
2022-09-06T15:06:49.001Z,1.60
2022-09-06T15:09:17.347Z,1.43
2022-09-06T15:11:46.254Z,1.60
2022-09-06T15:14:15.257Z,1.50
2022-09-06T15:16:43.440Z,1.50
2022-09-06T15:19:11.817Z,1.70
2022-09-06T15:21:42.008Z,1.40
2022-09-06T15:24:12.127Z,1.40
2022-09-06T15:26:40.877Z,1.30
2022-09-06T15:29:09.041Z,1.50
2022-09-06T15:31:38.313Z,1.60
2022-09-06T15:34:07.783Z,1.50
2022-09-06T15:36:35.822Z,1.80
2022-09-06T15:39:05.669Z,1.40
2022-09-06T15:41:35.597Z,1.50
2022-09-06T15:44:06.962Z,1.27
2022-09-06T15:46:45.685Z,1.50
2022-09-06T15:49:15.028Z,1.77
2022-09-06T15:51:43.124Z,1.40
2022-09-06T15:54:12.873Z,1.40
2022-09-06T15:56:40.026Z,1.53
2022-09-06T15:59:08.066Z,1.40
2022-09-06T16:01:36.716Z,1.40
2022-09-06T16:04:06.769Z,1.37
2022-09-06T16:06:37.104Z,1.30
2022-09-06T16:09:06.462Z,1.70
2022-09-06T16:11:36.771Z,1.73
2022-09-06T16:14:05.550Z,1.30
2022-09-06T16:16:34.497Z,1.40
2022-09-06T16:19:02.823Z,1.40
2022-09-06T16:21:32.116Z,1.20
2022-09-06T16:24:01.310Z,1.23
2022-09-06T16:26:32.117Z,1.20
2022-09-06T16:29:01.648Z,1.40
2022-09-06T16:31:30.878Z,1.43
2022-09-06T16:33:59.053Z,1.47
2022-09-06T16:36:27.233Z,1.67
2022-09-06T16:38:55.701Z,1.20
2022-09-06T16:41:25.512Z,1.43
2022-09-06T16:43:53.734Z,1.37
2022-09-06T16:46:24.593Z,1.30
2022-09-06T16:48:52.942Z,1.43
2022-09-06T16:51:21.820Z,1.40
2022-09-06T16:53:50.057Z,1.43
2022-09-06T16:56:18.918Z,1.30
2022-09-06T16:58:50.566Z,1.30
2022-09-06T17:01:18.824Z,1.30
2022-09-06T17:03:48.631Z,1.40
2022-09-06T17:06:16.805Z,1.33
2022-09-06T17:08:45.107Z,1.40
2022-09-06T17:11:14.717Z,1.30
2022-09-06T17:13:43.141Z,1.20
2022-09-06T17:16:28.631Z,1.30
2022-09-06T17:18:58.982Z,1.33
2022-09-06T17:21:27.141Z,1.40
2022-09-06T17:23:55.195Z,1.40
2022-09-06T17:26:23.474Z,1.30
2022-09-06T17:28:51.521Z,1.20
2022-09-06T17:31:24.994Z,1.30
2022-09-06T17:33:53.898Z,1.40
2022-09-06T17:36:24.501Z,1.20
2022-09-06T17:38:53.891Z,1.40
2022-09-06T17:41:23.016Z,1.30
2022-09-06T17:43:51.352Z,1.30
2022-09-06T17:46:19.467Z,1.33
2022-09-06T17:48:47.629Z,1.30
2022-09-06T17:51:15.653Z,1.40
2022-09-06T17:53:46.688Z,1.20
2022-09-06T17:56:15.607Z,1.20
2022-09-06T17:58:43.666Z,1.30
2022-09-06T18:01:12.908Z,1.40
2022-09-06T18:03:41.206Z,1.20
2022-09-06T18:06:10.582Z,1.40
2022-09-06T18:08:39.122Z,1.20
2022-09-06T18:11:12.322Z,1.30
2022-09-06T18:13:41.946Z,1.37
2022-09-06T18:16:10.094Z,1.30
2022-09-06T18:18:38.206Z,1.50
2022-09-06T18:21:07.125Z,1.23
2022-09-06T18:23:35.202Z,1.63
2022-09-06T18:26:04.074Z,1.53
2022-09-06T18:28:34.228Z,1.20
2022-09-06T18:31:04.670Z,1.23
2022-09-06T18:33:32.744Z,1.30
2022-09-06T18:36:00.994Z,1.30
2022-09-06T18:38:29.071Z,1.20
2022-09-06T18:40:58.219Z,1.20
2022-09-06T18:43:29.449Z,1.37
2022-09-06T18:46:03.611Z,1.20
2022-09-06T18:48:32.826Z,1.50
2022-09-06T18:51:05.116Z,1.20
2022-09-06T18:53:33.250Z,1.20
2022-09-06T18:56:01.404Z,1.20
2022-09-06T18:58:29.578Z,1.30
2022-09-06T19:01:04.158Z,1.40
2022-09-06T19:03:32.735Z,1.40
2022-09-06T19:06:03.537Z,1.20
2022-09-06T19:08:31.583Z,1.30
2022-09-06T19:11:01.868Z,1.30
2022-09-06T19:13:30.249Z,1.30
2022-09-06T19:15:59.133Z,1.20
2022-09-06T19:18:28.888Z,1.27
2022-09-06T19:21:00.022Z,1.20
2022-09-06T19:23:28.652Z,1.33
2022-09-06T19:25:59.570Z,1.40
2022-09-06T19:28:27.999Z,1.30
2022-09-06T19:30:56.192Z,1.20
2022-09-06T19:33:24.309Z,1.20
2022-09-06T19:36:10.321Z,1.30
2022-09-06T19:39:01.508Z,1.30
2022-09-06T19:41:28.318Z,1.30
2022-09-06T19:43:57.016Z,1.10
2022-09-06T19:46:25.236Z,1.20
2022-09-06T19:48:55.833Z,1.13
2022-09-06T19:51:25.312Z,1.00
2022-09-06T19:53:54.005Z,1.20
2022-09-06T19:56:23.163Z,1.40
2022-09-06T19:58:55.206Z,1.37
2022-09-06T20:01:23.567Z,1.27
2022-09-06T20:03:51.769Z,1.20
2022-09-06T20:06:19.818Z,1.20
2022-09-06T20:08:51.624Z,1.10
2022-09-06T20:11:20.047Z,1.20
2022-09-06T20:13:48.172Z,1.20
2022-09-06T20:16:16.587Z,1.13
2022-09-06T20:18:44.978Z,1.20
2022-09-06T20:21:14.908Z,1.10
2022-09-06T20:23:43.044Z,1.30
2022-09-06T20:26:14.922Z,1.20
2022-09-06T20:28:44.023Z,1.20
2022-09-06T20:31:15.434Z,1.03
2022-09-06T20:33:48.479Z,1.10
2022-09-06T20:36:17.759Z,1.20
2022-09-06T20:38:46.066Z,1.00
2022-09-06T20:41:16.854Z,1.00
2022-09-06T20:43:44.918Z,1.30
2022-09-06T20:46:15.377Z,1.10
2022-09-06T20:48:44.833Z,1.00
2022-09-06T20:51:14.865Z,1.13
2022-09-06T20:53:43.101Z,1.17
2022-09-06T20:56:12.411Z,1.07
2022-09-06T20:58:41.905Z,1.10
2022-09-06T21:01:11.543Z,1.03
2022-09-06T21:03:40.535Z,1.20
2022-09-06T21:06:08.834Z,1.00
2022-09-06T21:08:41.825Z,1.07
2022-09-06T21:11:10.778Z,1.00
2022-09-06T21:13:39.130Z,1.13
2022-09-06T21:16:08.935Z,1.10
2022-09-06T21:18:37.310Z,1.00
2022-09-06T21:21:06.379Z,0.90
2022-09-06T21:23:35.348Z,1.13
2022-09-06T21:26:04.460Z,1.03
2022-09-06T21:28:33.437Z,1.00
2022-09-06T21:31:02.918Z,1.00
2022-09-06T21:33:33.152Z,1.03
2022-09-06T21:36:06.547Z,0.87
2022-09-06T21:38:34.730Z,1.20
2022-09-06T21:41:02.841Z,1.10
2022-09-06T21:43:30.892Z,1.00
2022-09-06T21:46:01.922Z,1.20
2022-09-06T21:48:34.292Z,1.13
2022-09-06T21:51:02.376Z,1.10
2022-09-06T21:53:30.417Z,1.20
2022-09-06T21:56:00.608Z,1.00
2022-09-06T21:58:28.670Z,1.20
2022-09-06T22:00:59.159Z,1.00
2022-09-06T22:03:27.264Z,0.90
2022-09-06T22:05:56.821Z,1.20
2022-09-06T22:08:24.963Z,1.00
2022-09-06T22:10:53.154Z,1.03
2022-09-06T22:13:21.319Z,0.90
2022-09-06T22:15:49.474Z,1.00
2022-09-06T22:18:17.550Z,1.13
2022-09-06T22:20:45.612Z,1.07
2022-09-06T22:23:15.044Z,1.00
2022-09-06T22:25:43.065Z,1.17
2022-09-06T22:28:11.135Z,0.90
2022-09-06T22:30:39.124Z,1.90
2022-09-06T22:33:07.443Z,1.00
2022-09-06T22:35:35.486Z,1.00
2022-09-06T22:38:03.568Z,1.00
2022-09-06T22:40:33.009Z,1.00
2022-09-06T22:43:01.164Z,1.00
2022-09-06T22:45:29.507Z,1.00
2022-09-06T22:47:57.512Z,1.00
2022-09-06T22:50:25.590Z,1.10
2022-09-06T22:52:53.643Z,1.10
2022-09-06T22:55:21.733Z,1.00
2022-09-06T22:57:51.136Z,1.00
2022-09-06T23:00:19.301Z,1.10
2022-09-06T23:02:47.344Z,0.87
2022-09-06T23:05:15.491Z,1.20
2022-09-06T23:07:43.534Z,0.90
2022-09-06T23:10:11.859Z,1.00
2022-09-06T23:12:39.959Z,0.90
2022-09-06T23:15:10.204Z,1.20
2022-09-06T23:17:38.257Z,1.00
2022-09-06T23:20:07.105Z,1.30
2022-09-06T23:22:35.143Z,1.00
2022-09-06T23:25:03.222Z,1.03
2022-09-06T23:27:31.285Z,1.00
2022-09-06T23:29:59.876Z,0.90
2022-09-06T23:32:29.274Z,1.10
2022-09-06T23:34:57.319Z,1.10
2022-09-06T23:37:25.397Z,1.10
2022-09-06T23:39:53.564Z,0.90
2022-09-06T23:42:22.946Z,1.20
2022-09-06T23:44:54.383Z,1.10
2022-09-06T23:47:22.417Z,1.03
2022-09-06T23:49:51.781Z,0.90
2022-09-06T23:52:19.851Z,1.10
2022-09-06T23:54:47.951Z,1.03
2022-09-06T23:57:16.338Z,1.20
2022-09-06T23:59:44.380Z,0.90
